Fuerteventura (La Oliva), Spain
Current Conditions -  °F | °C
As of 8:00 PM on Sunday 21 Dec 2014 (Local Time) from GCFV Reporting Station
Few Clouds Few Clouds  
Wind Chill: 66°   Ceiling: Unl
Heat Index: 66°   Visibility: 6mi
Dew Point: 59°   Wind: 16mph
Humidity: 78%   Direction: 40°NE
Pressure: 30.24"   Gusts: NA
Location:  28.6°N, 13.93°W
Report Text: GCFV 212000Z 04014KT 9999 FEW020 19/15 Q1024
Loading
Personal Weather Stations






























Interactive Weather Map New forecast layout! Learn more

10-Day Weather Forecast

Advertisements
Track Severe Weather on mobile